sensor_id;sensor_type;location;lat;lon;timestamp;P1;durP1;ratioP1;P2;durP2;ratioP2
74660;SDS011;63191;39.566;2.654;2023-01-29T00:01:54;5.00;;;1.70;;
74660;SDS011;63191;39.566;2.654;2023-01-29T00:04:20;6.50;;;1.70;;
74660;SDS011;63191;39.566;2.654;2023-01-29T00:06:46;7.80;;;1.80;;
74660;SDS011;63191;39.566;2.654;2023-01-29T00:09:12;6.80;;;2.40;;
74660;SDS011;63191;39.566;2.654;2023-01-29T00:11:39;8.30;;;3.00;;
74660;SDS011;63191;39.566;2.654;2023-01-29T00:14:05;9.60;;;3.20;;
74660;SDS011;63191;39.566;2.654;2023-01-29T00:16:31;8.00;;;2.50;;
74660;SDS011;63191;39.566;2.654;2023-01-29T00:18:57;9.70;;;3.00;;
74660;SDS011;63191;39.566;2.654;2023-01-29T00:21:24;10.90;;;2.70;;
74660;SDS011;63191;39.566;2.654;2023-01-29T00:23:50;8.70;;;2.70;;
74660;SDS011;63191;39.566;2.654;2023-01-29T00:26:16;7.20;;;2.50;;
74660;SDS011;63191;39.566;2.654;2023-01-29T00:28:41;8.20;;;3.00;;
74660;SDS011;63191;39.566;2.654;2023-01-29T00:31:12;8.50;;;2.50;;
74660;SDS011;63191;39.566;2.654;2023-01-29T00:33:40;7.70;;;2.80;;
74660;SDS011;63191;39.566;2.654;2023-01-29T00:36:09;8.30;;;2.50;;
74660;SDS011;63191;39.566;2.654;2023-01-29T00:38:37;8.00;;;2.00;;
74660;SDS011;63191;39.566;2.654;2023-01-29T00:41:12;7.50;;;2.00;;
74660;SDS011;63191;39.566;2.654;2023-01-29T00:43:59;7.50;;;1.90;;
74660;SDS011;63191;39.566;2.654;2023-01-29T00:46:44;8.40;;;1.90;;
74660;SDS011;63191;39.566;2.654;2023-01-29T00:49:10;5.50;;;1.80;;
74660;SDS011;63191;39.566;2.654;2023-01-29T00:51:37;6.70;;;1.60;;
74660;SDS011;63191;39.566;2.654;2023-01-29T00:54:04;8.60;;;2.20;;
74660;SDS011;63191;39.566;2.654;2023-01-29T00:56:33;9.10;;;1.90;;
74660;SDS011;63191;39.566;2.654;2023-01-29T00:59:02;8.00;;;2.20;;
74660;SDS011;63191;39.566;2.654;2023-01-29T01:01:28;6.80;;;1.90;;
74660;SDS011;63191;39.566;2.654;2023-01-29T01:04:13;8.20;;;2.30;;
74660;SDS011;63191;39.566;2.654;2023-01-29T01:06:40;6.30;;;2.10;;
74660;SDS011;63191;39.566;2.654;2023-01-29T01:09:09;7.90;;;2.00;;
74660;SDS011;63191;39.566;2.654;2023-01-29T01:12:05;8.70;;;2.30;;
74660;SDS011;63191;39.566;2.654;2023-01-29T01:14:33;7.00;;;2.10;;
74660;SDS011;63191;39.566;2.654;2023-01-29T01:17:00;8.70;;;2.40;;
74660;SDS011;63191;39.566;2.654;2023-01-29T01:19:26;9.40;;;2.30;;
74660;SDS011;63191;39.566;2.654;2023-01-29T01:21:52;6.50;;;1.80;;
74660;SDS011;63191;39.566;2.654;2023-01-29T01:24:17;9.10;;;2.20;;
74660;SDS011;63191;39.566;2.654;2023-01-29T01:26:44;7.80;;;1.90;;
74660;SDS011;63191;39.566;2.654;2023-01-29T01:29:10;7.20;;;1.60;;
74660;SDS011;63191;39.566;2.654;2023-01-29T01:31:36;8.50;;;2.60;;
74660;SDS011;63191;39.566;2.654;2023-01-29T01:34:02;8.70;;;2.20;;
74660;SDS011;63191;39.566;2.654;2023-01-29T01:36:28;9.90;;;2.20;;
74660;SDS011;63191;39.566;2.654;2023-01-29T01:38:53;6.10;;;1.80;;
74660;SDS011;63191;39.566;2.654;2023-01-29T01:41:20;8.00;;;1.90;;
74660;SDS011;63191;39.566;2.654;2023-01-29T01:43:51;9.50;;;2.10;;
74660;SDS011;63191;39.566;2.654;2023-01-29T01:46:31;7.30;;;1.80;;
74660;SDS011;63191;39.566;2.654;2023-01-29T01:49:10;6.90;;;2.00;;
74660;SDS011;63191;39.566;2.654;2023-01-29T01:51:46;8.10;;;2.40;;
74660;SDS011;63191;39.566;2.654;2023-01-29T01:54:27;9.10;;;2.40;;
74660;SDS011;63191;39.566;2.654;2023-01-29T01:56:59;7.50;;;1.90;;
74660;SDS011;63191;39.566;2.654;2023-01-29T01:59:42;7.00;;;2.10;;
74660;SDS011;63191;39.566;2.654;2023-01-29T02:02:13;7.20;;;2.10;;
74660;SDS011;63191;39.566;2.654;2023-01-29T02:04:58;8.60;;;2.50;;
74660;SDS011;63191;39.566;2.654;2023-01-29T02:07:44;10.80;;;2.90;;
74660;SDS011;63191;39.566;2.654;2023-01-29T02:10:35;6.30;;;1.40;;
74660;SDS011;63191;39.566;2.654;2023-01-29T02:13:06;9.20;;;2.10;;
74660;SDS011;63191;39.566;2.654;2023-01-29T02:15:32;7.50;;;2.40;;
74660;SDS011;63191;39.566;2.654;2023-01-29T02:17:58;8.20;;;2.10;;
74660;SDS011;63191;39.566;2.654;2023-01-29T02:20:27;8.70;;;1.70;;
74660;SDS011;63191;39.566;2.654;2023-01-29T02:29:00;9.60;;;2.30;;
74660;SDS011;63191;39.566;2.654;2023-01-29T02:38:20;7.00;;;2.00;;
74660;SDS011;63191;39.566;2.654;2023-01-29T02:41:15;5.50;;;1.50;;
74660;SDS011;63191;39.566;2.654;2023-01-29T02:43:56;6.70;;;1.40;;
74660;SDS011;63191;39.566;2.654;2023-01-29T02:46:32;8.10;;;1.70;;
74660;SDS011;63191;39.566;2.654;2023-01-29T02:52:02;8.90;;;1.80;;
74660;SDS011;63191;39.566;2.654;2023-01-29T02:54:42;7.40;;;1.50;;
74660;SDS011;63191;39.566;2.654;2023-01-29T02:57:21;7.50;;;1.70;;
74660;SDS011;63191;39.566;2.654;2023-01-29T02:59:55;6.50;;;1.50;;
74660;SDS011;63191;39.566;2.654;2023-01-29T03:02:31;8.40;;;2.10;;
74660;SDS011;63191;39.566;2.654;2023-01-29T03:05:03;6.80;;;1.80;;
74660;SDS011;63191;39.566;2.654;2023-01-29T03:07:39;7.20;;;1.60;;
74660;SDS011;63191;39.566;2.654;2023-01-29T03:10:28;5.00;;;1.40;;
74660;SDS011;63191;39.566;2.654;2023-01-29T03:13:11;6.50;;;1.50;;
74660;SDS011;63191;39.566;2.654;2023-01-29T03:15:48;6.80;;;1.40;;
74660;SDS011;63191;39.566;2.654;2023-01-29T03:18:29;8.10;;;1.50;;
74660;SDS011;63191;39.566;2.654;2023-01-29T03:21:04;6.10;;;1.60;;
74660;SDS011;63191;39.566;2.654;2023-01-29T03:23:54;6.10;;;1.70;;
74660;SDS011;63191;39.566;2.654;2023-01-29T03:26:42;6.70;;;1.30;;
74660;SDS011;63191;39.566;2.654;2023-01-29T03:29:30;6.00;;;1.50;;
74660;SDS011;63191;39.566;2.654;2023-01-29T03:32:17;7.40;;;1.70;;
74660;SDS011;63191;39.566;2.654;2023-01-29T03:34:49;7.60;;;1.80;;
74660;SDS011;63191;39.566;2.654;2023-01-29T03:37:38;8.40;;;1.80;;
74660;SDS011;63191;39.566;2.654;2023-01-29T03:40:08;9.80;;;2.30;;
74660;SDS011;63191;39.566;2.654;2023-01-29T03:42:52;9.30;;;1.40;;
74660;SDS011;63191;39.566;2.654;2023-01-29T03:48:53;10.10;;;2.20;;
74660;SDS011;63191;39.566;2.654;2023-01-29T03:51:37;9.70;;;2.10;;
74660;SDS011;63191;39.566;2.654;2023-01-29T04:00:36;8.60;;;1.90;;
74660;SDS011;63191;39.566;2.654;2023-01-29T04:05:42;8.90;;;1.70;;
74660;SDS011;63191;39.566;2.654;2023-01-29T04:08:28;7.90;;;1.60;;
74660;SDS011;63191;39.566;2.654;2023-01-29T04:10:58;9.00;;;1.80;;
74660;SDS011;63191;39.566;2.654;2023-01-29T04:13:26;11.80;;;2.00;;
74660;SDS011;63191;39.566;2.654;2023-01-29T04:15:57;7.10;;;1.60;;
74660;SDS011;63191;39.566;2.654;2023-01-29T04:18:24;7.50;;;1.60;;
74660;SDS011;63191;39.566;2.654;2023-01-29T04:20:50;7.10;;;1.60;;
74660;SDS011;63191;39.566;2.654;2023-01-29T04:23:25;9.60;;;1.80;;
74660;SDS011;63191;39.566;2.654;2023-01-29T04:25:59;8.80;;;1.90;;
74660;SDS011;63191;39.566;2.654;2023-01-29T04:31:51;9.50;;;1.80;;
74660;SDS011;63191;39.566;2.654;2023-01-29T04:37:35;6.50;;;1.50;;
74660;SDS011;63191;39.566;2.654;2023-01-29T04:40:25;6.90;;;1.40;;
74660;SDS011;63191;39.566;2.654;2023-01-29T04:51:47;7.30;;;1.60;;
74660;SDS011;63191;39.566;2.654;2023-01-29T04:55:46;9.60;;;1.50;;
74660;SDS011;63191;39.566;2.654;2023-01-29T04:57:53;7.10;;;1.40;;
74660;SDS011;63191;39.566;2.654;2023-01-29T05:00:32;4.80;;;1.10;;
74660;SDS011;63191;39.566;2.654;2023-01-29T05:03:03;5.90;;;1.50;;
74660;SDS011;63191;39.566;2.654;2023-01-29T05:05:30;7.80;;;1.40;;
74660;SDS011;63191;39.566;2.654;2023-01-29T05:07:56;7.00;;;1.40;;
74660;SDS011;63191;39.566;2.654;2023-01-29T05:10:24;12.10;;;1.80;;
74660;SDS011;63191;39.566;2.654;2023-01-29T05:12:55;7.90;;;1.20;;
74660;SDS011;63191;39.566;2.654;2023-01-29T05:15:30;5.70;;;1.40;;
74660;SDS011;63191;39.566;2.654;2023-01-29T05:17:58;5.30;;;1.10;;
74660;SDS011;63191;39.566;2.654;2023-01-29T05:20:31;8.40;;;1.50;;
74660;SDS011;63191;39.566;2.654;2023-01-29T05:22:57;7.30;;;1.50;;
74660;SDS011;63191;39.566;2.654;2023-01-29T05:25:29;6.00;;;1.40;;
74660;SDS011;63191;39.566;2.654;2023-01-29T05:27:55;6.20;;;1.40;;
74660;SDS011;63191;39.566;2.654;2023-01-29T05:30:56;9.10;;;1.80;;
74660;SDS011;63191;39.566;2.654;2023-01-29T05:33:30;5.90;;;1.50;;
74660;SDS011;63191;39.566;2.654;2023-01-29T05:35:58;9.80;;;2.00;;
74660;SDS011;63191;39.566;2.654;2023-01-29T05:38:24;6.40;;;1.30;;
74660;SDS011;63191;39.566;2.654;2023-01-29T05:40:50;6.10;;;1.40;;
74660;SDS011;63191;39.566;2.654;2023-01-29T05:43:21;7.20;;;1.70;;
74660;SDS011;63191;39.566;2.654;2023-01-29T05:45:56;5.70;;;1.40;;
74660;SDS011;63191;39.566;2.654;2023-01-29T05:48:23;5.70;;;1.00;;
74660;SDS011;63191;39.566;2.654;2023-01-29T05:50:50;4.80;;;1.10;;
74660;SDS011;63191;39.566;2.654;2023-01-29T05:53:16;6.50;;;1.60;;
74660;SDS011;63191;39.566;2.654;2023-01-29T05:55:45;7.60;;;1.40;;
74660;SDS011;63191;39.566;2.654;2023-01-29T05:58:12;6.70;;;1.10;;
74660;SDS011;63191;39.566;2.654;2023-01-29T06:00:39;4.90;;;1.00;;
74660;SDS011;63191;39.566;2.654;2023-01-29T06:03:06;5.50;;;1.00;;
74660;SDS011;63191;39.566;2.654;2023-01-29T06:05:43;6.50;;;1.10;;
74660;SDS011;63191;39.566;2.654;2023-01-29T06:08:08;6.40;;;1.20;;
74660;SDS011;63191;39.566;2.654;2023-01-29T06:10:34;5.70;;;1.00;;
74660;SDS011;63191;39.566;2.654;2023-01-29T06:13:00;4.10;;;0.80;;
74660;SDS011;63191;39.566;2.654;2023-01-29T06:15:26;4.60;;;0.80;;
74660;SDS011;63191;39.566;2.654;2023-01-29T06:17:55;3.60;;;1.10;;
74660;SDS011;63191;39.566;2.654;2023-01-29T06:20:22;7.90;;;1.30;;
74660;SDS011;63191;39.566;2.654;2023-01-29T06:22:48;5.30;;;1.00;;
74660;SDS011;63191;39.566;2.654;2023-01-29T06:25:14;5.00;;;1.10;;
74660;SDS011;63191;39.566;2.654;2023-01-29T06:27:42;7.10;;;1.70;;
74660;SDS011;63191;39.566;2.654;2023-01-29T06:30:09;4.90;;;1.10;;
74660;SDS011;63191;39.566;2.654;2023-01-29T06:32:35;5.70;;;1.20;;
74660;SDS011;63191;39.566;2.654;2023-01-29T06:35:00;5.30;;;1.10;;
74660;SDS011;63191;39.566;2.654;2023-01-29T06:37:26;5.20;;;1.10;;
74660;SDS011;63191;39.566;2.654;2023-01-29T06:39:51;5.10;;;1.10;;
74660;SDS011;63191;39.566;2.654;2023-01-29T06:42:17;5.20;;;1.00;;
74660;SDS011;63191;39.566;2.654;2023-01-29T06:44:44;6.20;;;1.40;;
74660;SDS011;63191;39.566;2.654;2023-01-29T06:47:10;5.20;;;0.90;;
74660;SDS011;63191;39.566;2.654;2023-01-29T06:49:36;7.30;;;1.50;;
74660;SDS011;63191;39.566;2.654;2023-01-29T06:52:01;7.30;;;1.60;;
74660;SDS011;63191;39.566;2.654;2023-01-29T06:54:27;8.10;;;1.60;;
74660;SDS011;63191;39.566;2.654;2023-01-29T06:56:53;7.40;;;1.50;;
74660;SDS011;63191;39.566;2.654;2023-01-29T06:59:20;6.30;;;1.20;;
74660;SDS011;63191;39.566;2.654;2023-01-29T07:01:46;6.50;;;1.60;;
74660;SDS011;63191;39.566;2.654;2023-01-29T07:04:12;6.60;;;1.30;;
74660;SDS011;63191;39.566;2.654;2023-01-29T07:06:38;7.80;;;1.80;;
74660;SDS011;63191;39.566;2.654;2023-01-29T07:09:04;4.60;;;1.50;;
74660;SDS011;63191;39.566;2.654;2023-01-29T07:11:30;5.00;;;1.30;;
74660;SDS011;63191;39.566;2.654;2023-01-29T07:13:56;7.20;;;1.70;;
74660;SDS011;63191;39.566;2.654;2023-01-29T07:16:22;4.70;;;1.30;;
74660;SDS011;63191;39.566;2.654;2023-01-29T07:18:49;4.70;;;1.30;;
74660;SDS011;63191;39.566;2.654;2023-01-29T07:21:17;4.40;;;1.10;;
74660;SDS011;63191;39.566;2.654;2023-01-29T07:23:43;6.10;;;1.20;;
74660;SDS011;63191;39.566;2.654;2023-01-29T07:26:09;6.50;;;1.50;;
74660;SDS011;63191;39.566;2.654;2023-01-29T07:28:39;6.70;;;1.60;;
74660;SDS011;63191;39.566;2.654;2023-01-29T07:31:05;6.00;;;1.60;;
74660;SDS011;63191;39.566;2.654;2023-01-29T07:33:32;7.40;;;1.70;;
74660;SDS011;63191;39.566;2.654;2023-01-29T07:35:58;6.80;;;1.90;;
74660;SDS011;63191;39.566;2.654;2023-01-29T07:38:24;7.30;;;2.00;;
74660;SDS011;63191;39.566;2.654;2023-01-29T07:40:53;6.00;;;1.70;;
74660;SDS011;63191;39.566;2.654;2023-01-29T07:43:19;8.30;;;1.50;;
74660;SDS011;63191;39.566;2.654;2023-01-29T07:45:45;6.00;;;1.50;;
74660;SDS011;63191;39.566;2.654;2023-01-29T07:48:12;7.70;;;1.80;;
74660;SDS011;63191;39.566;2.654;2023-01-29T07:50:38;5.70;;;1.40;;
74660;SDS011;63191;39.566;2.654;2023-01-29T07:53:04;6.40;;;1.50;;
74660;SDS011;63191;39.566;2.654;2023-01-29T07:55:31;7.40;;;2.10;;
74660;SDS011;63191;39.566;2.654;2023-01-29T07:57:59;6.90;;;1.50;;
74660;SDS011;63191;39.566;2.654;2023-01-29T08:00:26;5.90;;;1.40;;
74660;SDS011;63191;39.566;2.654;2023-01-29T08:02:53;8.30;;;1.60;;
74660;SDS011;63191;39.566;2.654;2023-01-29T08:05:18;7.00;;;1.80;;
74660;SDS011;63191;39.566;2.654;2023-01-29T08:07:44;6.30;;;1.70;;
74660;SDS011;63191;39.566;2.654;2023-01-29T08:10:11;6.60;;;1.50;;
74660;SDS011;63191;39.566;2.654;2023-01-29T08:12:36;6.20;;;1.60;;
74660;SDS011;63191;39.566;2.654;2023-01-29T08:15:02;6.00;;;1.60;;
74660;SDS011;63191;39.566;2.654;2023-01-29T08:17:28;5.70;;;1.70;;
74660;SDS011;63191;39.566;2.654;2023-01-29T08:19:54;6.30;;;1.60;;
74660;SDS011;63191;39.566;2.654;2023-01-29T08:22:20;5.80;;;1.60;;
74660;SDS011;63191;39.566;2.654;2023-01-29T08:24:45;7.30;;;2.00;;
74660;SDS011;63191;39.566;2.654;2023-01-29T08:27:11;13.50;;;2.30;;
74660;SDS011;63191;39.566;2.654;2023-01-29T08:29:37;8.00;;;2.30;;
74660;SDS011;63191;39.566;2.654;2023-01-29T08:32:02;8.70;;;2.10;;
74660;SDS011;63191;39.566;2.654;2023-01-29T08:34:28;7.80;;;2.50;;
74660;SDS011;63191;39.566;2.654;2023-01-29T08:36:54;9.20;;;2.10;;
74660;SDS011;63191;39.566;2.654;2023-01-29T08:39:19;7.90;;;1.80;;
74660;SDS011;63191;39.566;2.654;2023-01-29T08:41:45;7.10;;;2.00;;
74660;SDS011;63191;39.566;2.654;2023-01-29T08:44:11;7.50;;;1.80;;
74660;SDS011;63191;39.566;2.654;2023-01-29T08:46:36;7.20;;;2.40;;
74660;SDS011;63191;39.566;2.654;2023-01-29T08:49:05;7.60;;;2.10;;
74660;SDS011;63191;39.566;2.654;2023-01-29T08:51:32;7.20;;;2.00;;
74660;SDS011;63191;39.566;2.654;2023-01-29T08:53:58;11.00;;;2.50;;
74660;SDS011;63191;39.566;2.654;2023-01-29T08:56:24;8.00;;;2.30;;
74660;SDS011;63191;39.566;2.654;2023-01-29T08:58:49;7.60;;;1.90;;
74660;SDS011;63191;39.566;2.654;2023-01-29T09:01:15;7.70;;;2.10;;
74660;SDS011;63191;39.566;2.654;2023-01-29T09:03:41;7.10;;;1.80;;
74660;SDS011;63191;39.566;2.654;2023-01-29T09:06:12;6.80;;;2.00;;
74660;SDS011;63191;39.566;2.654;2023-01-29T09:08:39;6.90;;;1.90;;
74660;SDS011;63191;39.566;2.654;2023-01-29T09:11:06;5.10;;;1.30;;
74660;SDS011;63191;39.566;2.654;2023-01-29T09:13:32;6.40;;;2.30;;
74660;SDS011;63191;39.566;2.654;2023-01-29T09:15:59;6.80;;;1.80;;
74660;SDS011;63191;39.566;2.654;2023-01-29T09:18:28;8.20;;;2.30;;
74660;SDS011;63191;39.566;2.654;2023-01-29T09:20:54;6.70;;;2.10;;
74660;SDS011;63191;39.566;2.654;2023-01-29T09:23:20;7.60;;;2.10;;
74660;SDS011;63191;39.566;2.654;2023-01-29T09:25:45;6.60;;;2.10;;
74660;SDS011;63191;39.566;2.654;2023-01-29T09:28:11;6.50;;;2.00;;
74660;SDS011;63191;39.566;2.654;2023-01-29T09:30:37;5.90;;;2.50;;
74660;SDS011;63191;39.566;2.654;2023-01-29T09:33:04;6.30;;;2.60;;
74660;SDS011;63191;39.566;2.654;2023-01-29T09:35:31;7.90;;;2.70;;
74660;SDS011;63191;39.566;2.654;2023-01-29T09:37:57;7.90;;;2.40;;
74660;SDS011;63191;39.566;2.654;2023-01-29T09:45:58;7.40;;;2.10;;
74660;SDS011;63191;39.566;2.654;2023-01-29T09:48:31;6.40;;;2.10;;
74660;SDS011;63191;39.566;2.654;2023-01-29T09:51:02;6.50;;;1.90;;
74660;SDS011;63191;39.566;2.654;2023-01-29T09:56:10;6.00;;;1.40;;
74660;SDS011;63191;39.566;2.654;2023-01-29T09:58:40;6.10;;;1.50;;
74660;SDS011;63191;39.566;2.654;2023-01-29T10:04:36;5.90;;;1.40;;
74660;SDS011;63191;39.566;2.654;2023-01-29T10:11:17;5.20;;;1.50;;
74660;SDS011;63191;39.566;2.654;2023-01-29T10:19:39;10.40;;;3.40;;
74660;SDS011;63191;39.566;2.654;2023-01-29T10:22:33;6.90;;;2.10;;
74660;SDS011;63191;39.566;2.654;2023-01-29T10:25:13;5.20;;;1.60;;
74660;SDS011;63191;39.566;2.654;2023-01-29T10:27:50;6.50;;;2.50;;
74660;SDS011;63191;39.566;2.654;2023-01-29T10:30:32;6.80;;;2.30;;
74660;SDS011;63191;39.566;2.654;2023-01-29T10:33:03;6.00;;;1.60;;
74660;SDS011;63191;39.566;2.654;2023-01-29T10:35:38;6.90;;;2.20;;
74660;SDS011;63191;39.566;2.654;2023-01-29T10:41:21;6.20;;;2.40;;
74660;SDS011;63191;39.566;2.654;2023-01-29T10:50:20;6.70;;;2.70;;
74660;SDS011;63191;39.566;2.654;2023-01-29T10:53:15;5.10;;;2.40;;
74660;SDS011;63191;39.566;2.654;2023-01-29T11:01:57;6.30;;;2.50;;
74660;SDS011;63191;39.566;2.654;2023-01-29T11:04:31;6.00;;;3.30;;
74660;SDS011;63191;39.566;2.654;2023-01-29T11:06:58;6.20;;;3.40;;
74660;SDS011;63191;39.566;2.654;2023-01-29T11:12:13;5.90;;;3.30;;
74660;SDS011;63191;39.566;2.654;2023-01-29T11:14:48;6.00;;;3.00;;
74660;SDS011;63191;39.566;2.654;2023-01-29T11:17:21;6.90;;;3.20;;
74660;SDS011;63191;39.566;2.654;2023-01-29T11:19:48;6.20;;;3.30;;
74660;SDS011;63191;39.566;2.654;2023-01-29T11:22:27;6.30;;;2.30;;
74660;SDS011;63191;39.566;2.654;2023-01-29T11:25:16;5.40;;;2.70;;
74660;SDS011;63191;39.566;2.654;2023-01-29T11:28:03;6.00;;;2.70;;
74660;SDS011;63191;39.566;2.654;2023-01-29T11:30:33;4.90;;;2.90;;
74660;SDS011;63191;39.566;2.654;2023-01-29T11:33:22;5.70;;;2.50;;
74660;SDS011;63191;39.566;2.654;2023-01-29T11:35:48;4.20;;;2.00;;
74660;SDS011;63191;39.566;2.654;2023-01-29T11:40:49;3.40;;;2.00;;
74660;SDS011;63191;39.566;2.654;2023-01-29T11:43:29;5.40;;;1.80;;
74660;SDS011;63191;39.566;2.654;2023-01-29T11:46:10;4.90;;;2.40;;
74660;SDS011;63191;39.566;2.654;2023-01-29T11:48:48;5.30;;;2.10;;
74660;SDS011;63191;39.566;2.654;2023-01-29T11:51:22;4.00;;;1.60;;
74660;SDS011;63191;39.566;2.654;2023-01-29T11:53:59;4.40;;;1.80;;
74660;SDS011;63191;39.566;2.654;2023-01-29T11:56:31;4.20;;;1.50;;
74660;SDS011;63191;39.566;2.654;2023-01-29T11:59:00;4.50;;;1.30;;
74660;SDS011;63191;39.566;2.654;2023-01-29T12:01:38;4.20;;;1.50;;
74660;SDS011;63191;39.566;2.654;2023-01-29T12:04:20;5.40;;;1.60;;
74660;SDS011;63191;39.566;2.654;2023-01-29T12:06:49;4.80;;;1.50;;
74660;SDS011;63191;39.566;2.654;2023-01-29T12:09:23;5.80;;;2.00;;
74660;SDS011;63191;39.566;2.654;2023-01-29T12:11:54;11.70;;;7.40;;
74660;SDS011;63191;39.566;2.654;2023-01-29T12:14:46;9.00;;;3.10;;
74660;SDS011;63191;39.566;2.654;2023-01-29T12:17:28;6.00;;;2.70;;
74660;SDS011;63191;39.566;2.654;2023-01-29T12:20:10;8.40;;;3.00;;
74660;SDS011;63191;39.566;2.654;2023-01-29T12:25:40;7.40;;;3.10;;
74660;SDS011;63191;39.566;2.654;2023-01-29T12:34:49;7.60;;;3.00;;
74660;SDS011;63191;39.566;2.654;2023-01-29T12:37:37;8.20;;;3.50;;
74660;SDS011;63191;39.566;2.654;2023-01-29T12:40:30;6.40;;;2.80;;
74660;SDS011;63191;39.566;2.654;2023-01-29T12:43:10;6.80;;;2.40;;
74660;SDS011;63191;39.566;2.654;2023-01-29T12:45:49;7.30;;;2.70;;
74660;SDS011;63191;39.566;2.654;2023-01-29T12:48:30;7.70;;;2.00;;
74660;SDS011;63191;39.566;2.654;2023-01-29T12:51:05;7.20;;;2.00;;
74660;SDS011;63191;39.566;2.654;2023-01-29T12:53:37;6.80;;;2.10;;
74660;SDS011;63191;39.566;2.654;2023-01-29T12:56:26;7.10;;;2.60;;
74660;SDS011;63191;39.566;2.654;2023-01-29T13:00:09;9.70;;;2.70;;
74660;SDS011;63191;39.566;2.654;2023-01-29T13:05:37;4.80;;;1.10;;
74660;SDS011;63191;39.566;2.654;2023-01-29T13:10:52;6.60;;;1.70;;
74660;SDS011;63191;39.566;2.654;2023-01-29T13:13:34;5.50;;;1.50;;
74660;SDS011;63191;39.566;2.654;2023-01-29T13:16:06;6.70;;;1.50;;
74660;SDS011;63191;39.566;2.654;2023-01-29T13:21:15;5.30;;;1.60;;
74660;SDS011;63191;39.566;2.654;2023-01-29T13:26:39;6.80;;;2.00;;
74660;SDS011;63191;39.566;2.654;2023-01-29T13:29:05;7.50;;;2.00;;
74660;SDS011;63191;39.566;2.654;2023-01-29T13:31:35;7.80;;;2.40;;
74660;SDS011;63191;39.566;2.654;2023-01-29T13:34:21;8.10;;;2.30;;
74660;SDS011;63191;39.566;2.654;2023-01-29T13:36:51;6.80;;;2.30;;
74660;SDS011;63191;39.566;2.654;2023-01-29T13:41:54;8.10;;;2.20;;
74660;SDS011;63191;39.566;2.654;2023-01-29T13:44:34;7.00;;;2.50;;
74660;SDS011;63191;39.566;2.654;2023-01-29T13:47:07;8.60;;;4.10;;
74660;SDS011;63191;39.566;2.654;2023-01-29T13:49:53;7.80;;;2.20;;
74660;SDS011;63191;39.566;2.654;2023-01-29T13:52:53;8.70;;;2.10;;
74660;SDS011;63191;39.566;2.654;2023-01-29T13:55:26;7.10;;;2.10;;
74660;SDS011;63191;39.566;2.654;2023-01-29T13:58:04;7.70;;;2.70;;
74660;SDS011;63191;39.566;2.654;2023-01-29T14:05:55;10.60;;;2.80;;
74660;SDS011;63191;39.566;2.654;2023-01-29T14:13:48;7.50;;;1.90;;
74660;SDS011;63191;39.566;2.654;2023-01-29T14:18:56;8.10;;;3.20;;
74660;SDS011;63191;39.566;2.654;2023-01-29T14:21:27;6.50;;;2.00;;
74660;SDS011;63191;39.566;2.654;2023-01-29T14:24:08;6.90;;;2.00;;
74660;SDS011;63191;39.566;2.654;2023-01-29T14:29:22;7.40;;;2.00;;
74660;SDS011;63191;39.566;2.654;2023-01-29T14:31:56;8.50;;;2.20;;
74660;SDS011;63191;39.566;2.654;2023-01-29T14:34:29;8.10;;;2.00;;
74660;SDS011;63191;39.566;2.654;2023-01-29T14:39:48;5.50;;;1.50;;
74660;SDS011;63191;39.566;2.654;2023-01-29T14:42:34;8.20;;;1.80;;
74660;SDS011;63191;39.566;2.654;2023-01-29T14:45:35;7.10;;;1.60;;
74660;SDS011;63191;39.566;2.654;2023-01-29T14:55:49;7.00;;;1.80;;
74660;SDS011;63191;39.566;2.654;2023-01-29T15:01:22;6.90;;;1.90;;
74660;SDS011;63191;39.566;2.654;2023-01-29T15:04:02;8.10;;;1.60;;
74660;SDS011;63191;39.566;2.654;2023-01-29T15:06:34;5.60;;;1.60;;
74660;SDS011;63191;39.566;2.654;2023-01-29T15:09:38;5.80;;;1.40;;
74660;SDS011;63191;39.566;2.654;2023-01-29T15:12:32;7.20;;;1.30;;
74660;SDS011;63191;39.566;2.654;2023-01-29T15:21:04;4.80;;;1.70;;
74660;SDS011;63191;39.566;2.654;2023-01-29T15:23:39;5.30;;;1.10;;
74660;SDS011;63191;39.566;2.654;2023-01-29T15:26:07;4.60;;;0.80;;
74660;SDS011;63191;39.566;2.654;2023-01-29T15:28:40;5.00;;;1.00;;
74660;SDS011;63191;39.566;2.654;2023-01-29T15:31:11;5.70;;;1.10;;
74660;SDS011;63191;39.566;2.654;2023-01-29T15:33:41;4.20;;;1.00;;
74660;SDS011;63191;39.566;2.654;2023-01-29T15:36:24;4.40;;;0.90;;
74660;SDS011;63191;39.566;2.654;2023-01-29T15:39:25;4.80;;;1.20;;
74660;SDS011;63191;39.566;2.654;2023-01-29T15:42:14;5.90;;;1.00;;
74660;SDS011;63191;39.566;2.654;2023-01-29T15:44:47;5.20;;;1.20;;
74660;SDS011;63191;39.566;2.654;2023-01-29T15:47:15;4.10;;;1.10;;
74660;SDS011;63191;39.566;2.654;2023-01-29T15:49:41;5.30;;;1.20;;
74660;SDS011;63191;39.566;2.654;2023-01-29T15:52:29;6.20;;;1.20;;
74660;SDS011;63191;39.566;2.654;2023-01-29T15:55:02;4.90;;;1.20;;
74660;SDS011;63191;39.566;2.654;2023-01-29T15:57:35;5.40;;;1.40;;
74660;SDS011;63191;39.566;2.654;2023-01-29T16:00:03;5.80;;;1.40;;
74660;SDS011;63191;39.566;2.654;2023-01-29T16:02:38;5.30;;;1.50;;
74660;SDS011;63191;39.566;2.654;2023-01-29T16:05:13;8.20;;;2.10;;
74660;SDS011;63191;39.566;2.654;2023-01-29T16:07:43;6.30;;;1.70;;
74660;SDS011;63191;39.566;2.654;2023-01-29T16:10:19;6.50;;;1.60;;
74660;SDS011;63191;39.566;2.654;2023-01-29T16:12:47;6.20;;;1.60;;
74660;SDS011;63191;39.566;2.654;2023-01-29T16:18:02;6.70;;;2.10;;
74660;SDS011;63191;39.566;2.654;2023-01-29T16:20:46;6.20;;;1.80;;
74660;SDS011;63191;39.566;2.654;2023-01-29T16:23:39;6.30;;;1.60;;
74660;SDS011;63191;39.566;2.654;2023-01-29T16:26:17;5.20;;;1.50;;
74660;SDS011;63191;39.566;2.654;2023-01-29T16:28:47;6.60;;;1.80;;
74660;SDS011;63191;39.566;2.654;2023-01-29T16:31:21;6.00;;;2.10;;
74660;SDS011;63191;39.566;2.654;2023-01-29T16:33:50;9.50;;;2.00;;
74660;SDS011;63191;39.566;2.654;2023-01-29T16:36:19;7.90;;;1.60;;
74660;SDS011;63191;39.566;2.654;2023-01-29T16:38:49;6.70;;;1.60;;
74660;SDS011;63191;39.566;2.654;2023-01-29T16:43:51;11.80;;;3.70;;
74660;SDS011;63191;39.566;2.654;2023-01-29T16:51:51;8.00;;;2.40;;
74660;SDS011;63191;39.566;2.654;2023-01-29T16:54:20;6.20;;;2.00;;
74660;SDS011;63191;39.566;2.654;2023-01-29T16:56:57;7.40;;;2.00;;
74660;SDS011;63191;39.566;2.654;2023-01-29T16:59:31;7.20;;;2.20;;
74660;SDS011;63191;39.566;2.654;2023-01-29T17:01:59;8.70;;;2.10;;
74660;SDS011;63191;39.566;2.654;2023-01-29T17:04:26;8.30;;;2.30;;
74660;SDS011;63191;39.566;2.654;2023-01-29T17:07:00;8.40;;;2.10;;
74660;SDS011;63191;39.566;2.654;2023-01-29T17:09:34;6.60;;;1.90;;
74660;SDS011;63191;39.566;2.654;2023-01-29T17:12:07;9.60;;;2.00;;
74660;SDS011;63191;39.566;2.654;2023-01-29T17:17:28;6.70;;;2.10;;
74660;SDS011;63191;39.566;2.654;2023-01-29T17:19:55;6.20;;;1.50;;
74660;SDS011;63191;39.566;2.654;2023-01-29T17:22:22;5.90;;;1.70;;
74660;SDS011;63191;39.566;2.654;2023-01-29T17:24:48;7.70;;;1.90;;
74660;SDS011;63191;39.566;2.654;2023-01-29T17:27:22;7.70;;;2.00;;
74660;SDS011;63191;39.566;2.654;2023-01-29T17:29:47;7.40;;;1.90;;
74660;SDS011;63191;39.566;2.654;2023-01-29T17:32:16;7.10;;;2.10;;
74660;SDS011;63191;39.566;2.654;2023-01-29T17:34:43;7.00;;;2.00;;
74660;SDS011;63191;39.566;2.654;2023-01-29T17:37:14;7.30;;;2.70;;
74660;SDS011;63191;39.566;2.654;2023-01-29T17:39:41;9.40;;;2.80;;
74660;SDS011;63191;39.566;2.654;2023-01-29T17:42:12;8.20;;;2.20;;
74660;SDS011;63191;39.566;2.654;2023-01-29T17:44:40;7.80;;;2.70;;
74660;SDS011;63191;39.566;2.654;2023-01-29T17:47:11;7.90;;;2.40;;
74660;SDS011;63191;39.566;2.654;2023-01-29T17:49:40;8.90;;;2.60;;
74660;SDS011;63191;39.566;2.654;2023-01-29T17:52:07;8.60;;;2.80;;
74660;SDS011;63191;39.566;2.654;2023-01-29T17:54:36;10.30;;;2.70;;
74660;SDS011;63191;39.566;2.654;2023-01-29T17:57:02;7.60;;;2.50;;
74660;SDS011;63191;39.566;2.654;2023-01-29T17:59:31;8.50;;;3.20;;